Ibi, Spain
Current Conditions -  °F | °C
As of 12:30 PM on Thursday 18 Dec 2014 (Local Time) from LEAL Reporting Station
Clear Clear  
Wind Chill: 66°   Ceiling: Unl
Heat Index: 66°   Visibility: 6mi
Dew Point: 45°   Wind: 2mph
Humidity: 46%   Direction: NA
Pressure: 30.27"   Gusts: NA
Location:  38.63°N, 0.57°W
Report Text: LEAL 181130Z VRB02KT CAVOK 19/07 Q1025 NOSIG
Loading
Personal Weather Stations






























Interactive Weather Map New forecast layout! Learn more

10-Day Weather Forecast

Advertisements
Track Severe Weather on mobile